sensor_id;sensor_type;location;lat;lon;timestamp;P1;durP1;ratioP1;P2;durP2;ratioP2
64885;SDS011;51514;52.206;5.114;2023-02-28T00:00:42;5.20;;;3.20;;
64885;SDS011;51514;52.206;5.114;2023-02-28T00:03:08;6.18;;;2.80;;
64885;SDS011;51514;52.206;5.114;2023-02-28T00:05:33;5.57;;;3.58;;
64885;SDS011;51514;52.206;5.114;2023-02-28T00:07:59;7.00;;;3.05;;
64885;SDS011;51514;52.206;5.114;2023-02-28T00:10:26;6.05;;;3.50;;
64885;SDS011;51514;52.206;5.114;2023-02-28T00:12:53;8.23;;;3.30;;
64885;SDS011;51514;52.206;5.114;2023-02-28T00:15:21;5.15;;;3.20;;
64885;SDS011;51514;52.206;5.114;2023-02-28T00:17:48;6.18;;;3.15;;
64885;SDS011;51514;52.206;5.114;2023-02-28T00:20:13;5.90;;;2.63;;
64885;SDS011;51514;52.206;5.114;2023-02-28T00:22:39;6.32;;;2.95;;
64885;SDS011;51514;52.206;5.114;2023-02-28T00:25:07;3.90;;;2.70;;
64885;SDS011;51514;52.206;5.114;2023-02-28T00:27:34;7.43;;;3.28;;
64885;SDS011;51514;52.206;5.114;2023-02-28T00:30:00;4.55;;;2.83;;
64885;SDS011;51514;52.206;5.114;2023-02-28T00:32:26;8.15;;;3.25;;
64885;SDS011;51514;52.206;5.114;2023-02-28T00:34:51;7.95;;;3.15;;
64885;SDS011;51514;52.206;5.114;2023-02-28T00:37:17;9.45;;;4.22;;
64885;SDS011;51514;52.206;5.114;2023-02-28T00:39:42;8.13;;;3.40;;
64885;SDS011;51514;52.206;5.114;2023-02-28T00:42:07;4.35;;;2.90;;
64885;SDS011;51514;52.206;5.114;2023-02-28T00:44:33;5.15;;;3.05;;
64885;SDS011;51514;52.206;5.114;2023-02-28T00:46:59;13.50;;;3.67;;
64885;SDS011;51514;52.206;5.114;2023-02-28T00:49:25;4.65;;;2.75;;
64885;SDS011;51514;52.206;5.114;2023-02-28T00:51:51;7.63;;;2.88;;
64885;SDS011;51514;52.206;5.114;2023-02-28T00:54:17;7.68;;;3.20;;
64885;SDS011;51514;52.206;5.114;2023-02-28T00:56:43;7.95;;;3.60;;
64885;SDS011;51514;52.206;5.114;2023-02-28T00:59:08;7.97;;;2.95;;
64885;SDS011;51514;52.206;5.114;2023-02-28T01:01:34;9.00;;;3.45;;
64885;SDS011;51514;52.206;5.114;2023-02-28T01:03:59;3.72;;;2.72;;
64885;SDS011;51514;52.206;5.114;2023-02-28T01:06:25;7.55;;;3.17;;
64885;SDS011;51514;52.206;5.114;2023-02-28T01:08:50;3.67;;;2.60;;
64885;SDS011;51514;52.206;5.114;2023-02-28T01:11:16;3.92;;;2.75;;
64885;SDS011;51514;52.206;5.114;2023-02-28T01:13:43;5.63;;;3.28;;
64885;SDS011;51514;52.206;5.114;2023-02-28T01:16:09;6.80;;;3.10;;
64885;SDS011;51514;52.206;5.114;2023-02-28T01:18:35;6.45;;;3.22;;
64885;SDS011;51514;52.206;5.114;2023-02-28T01:21:07;6.10;;;3.30;;
64885;SDS011;51514;52.206;5.114;2023-02-28T01:23:35;6.32;;;3.13;;
64885;SDS011;51514;52.206;5.114;2023-02-28T01:26:07;6.78;;;3.22;;
64885;SDS011;51514;52.206;5.114;2023-02-28T01:28:43;7.55;;;3.17;;
64885;SDS011;51514;52.206;5.114;2023-02-28T01:31:09;8.80;;;3.20;;
64885;SDS011;51514;52.206;5.114;2023-02-28T01:33:35;5.85;;;2.80;;
64885;SDS011;51514;52.206;5.114;2023-02-28T01:36:02;6.85;;;3.50;;
64885;SDS011;51514;52.206;5.114;2023-02-28T01:38:29;9.35;;;3.38;;
64885;SDS011;51514;52.206;5.114;2023-02-28T01:40:55;5.95;;;3.20;;
64885;SDS011;51514;52.206;5.114;2023-02-28T01:43:22;6.28;;;3.92;;
64885;SDS011;51514;52.206;5.114;2023-02-28T01:45:49;8.95;;;3.10;;
64885;SDS011;51514;52.206;5.114;2023-02-28T01:48:15;7.60;;;3.60;;
64885;SDS011;51514;52.206;5.114;2023-02-28T01:50:43;6.03;;;3.10;;
64885;SDS011;51514;52.206;5.114;2023-02-28T01:53:11;4.20;;;2.72;;
64885;SDS011;51514;52.206;5.114;2023-02-28T01:55:39;6.72;;;3.60;;
64885;SDS011;51514;52.206;5.114;2023-02-28T01:58:07;11.27;;;4.80;;
64885;SDS011;51514;52.206;5.114;2023-02-28T02:00:34;8.90;;;3.47;;
64885;SDS011;51514;52.206;5.114;2023-02-28T02:03:01;5.68;;;3.40;;
64885;SDS011;51514;52.206;5.114;2023-02-28T02:05:34;5.68;;;3.00;;
64885;SDS011;51514;52.206;5.114;2023-02-28T02:08:03;9.60;;;3.22;;
64885;SDS011;51514;52.206;5.114;2023-02-28T02:27:56;6.72;;;3.60;;
64885;SDS011;51514;52.206;5.114;2023-02-28T02:30:46;6.18;;;3.50;;
64885;SDS011;51514;52.206;5.114;2023-02-28T02:36:25;8.05;;;3.50;;
64885;SDS011;51514;52.206;5.114;2023-02-28T02:39:02;4.75;;;3.95;;
64885;SDS011;51514;52.206;5.114;2023-02-28T02:41:36;9.10;;;3.50;;
64885;SDS011;51514;52.206;5.114;2023-02-28T02:44:28;8.13;;;3.50;;
64885;SDS011;51514;52.206;5.114;2023-02-28T02:47:09;9.73;;;3.75;;
64885;SDS011;51514;52.206;5.114;2023-02-28T02:49:39;5.45;;;3.55;;
64885;SDS011;51514;52.206;5.114;2023-02-28T02:52:08;6.30;;;3.42;;
64885;SDS011;51514;52.206;5.114;2023-02-28T02:54:39;5.47;;;3.92;;
64885;SDS011;51514;52.206;5.114;2023-02-28T02:59:37;4.55;;;3.17;;
64885;SDS011;51514;52.206;5.114;2023-02-28T03:02:06;16.90;;;4.20;;
64885;SDS011;51514;52.206;5.114;2023-02-28T03:04:34;8.13;;;3.78;;
64885;SDS011;51514;52.206;5.114;2023-02-28T03:07:07;5.53;;;3.80;;
64885;SDS011;51514;52.206;5.114;2023-02-28T03:09:33;7.70;;;4.40;;
64885;SDS011;51514;52.206;5.114;2023-02-28T03:12:00;8.48;;;4.35;;
64885;SDS011;51514;52.206;5.114;2023-02-28T03:28:17;6.88;;;4.63;;
64885;SDS011;51514;52.206;5.114;2023-02-28T03:33:58;7.63;;;4.63;;
64885;SDS011;51514;52.206;5.114;2023-02-28T03:36:29;9.00;;;4.25;;
64885;SDS011;51514;52.206;5.114;2023-02-28T03:39:03;12.40;;;5.10;;
64885;SDS011;51514;52.206;5.114;2023-02-28T03:41:36;7.75;;;4.13;;
64885;SDS011;51514;52.206;5.114;2023-02-28T03:44:06;7.45;;;4.30;;
64885;SDS011;51514;52.206;5.114;2023-02-28T03:46:41;7.10;;;3.92;;
64885;SDS011;51514;52.206;5.114;2023-02-28T03:49:22;8.63;;;4.40;;
64885;SDS011;51514;52.206;5.114;2023-02-28T03:51:52;10.68;;;4.57;;
64885;SDS011;51514;52.206;5.114;2023-02-28T03:54:21;7.63;;;5.32;;
64885;SDS011;51514;52.206;5.114;2023-02-28T03:56:55;6.55;;;4.35;;
64885;SDS011;51514;52.206;5.114;2023-02-28T03:59:30;7.85;;;4.75;;
64885;SDS011;51514;52.206;5.114;2023-02-28T04:02:17;8.15;;;4.88;;
64885;SDS011;51514;52.206;5.114;2023-02-28T04:04:43;11.40;;;5.00;;
64885;SDS011;51514;52.206;5.114;2023-02-28T04:07:10;8.43;;;4.45;;
64885;SDS011;51514;52.206;5.114;2023-02-28T04:09:36;9.13;;;4.57;;
64885;SDS011;51514;52.206;5.114;2023-02-28T04:12:01;7.55;;;4.35;;
64885;SDS011;51514;52.206;5.114;2023-02-28T04:14:27;11.27;;;5.38;;
64885;SDS011;51514;52.206;5.114;2023-02-28T04:16:52;6.75;;;4.45;;
64885;SDS011;51514;52.206;5.114;2023-02-28T04:19:18;10.48;;;4.88;;
64885;SDS011;51514;52.206;5.114;2023-02-28T04:21:45;6.88;;;4.90;;
64885;SDS011;51514;52.206;5.114;2023-02-28T04:24:13;7.63;;;4.63;;
64885;SDS011;51514;52.206;5.114;2023-02-28T04:26:42;10.77;;;5.60;;
64885;SDS011;51514;52.206;5.114;2023-02-28T04:29:09;9.57;;;5.65;;
64885;SDS011;51514;52.206;5.114;2023-02-28T04:31:37;6.85;;;5.00;;
64885;SDS011;51514;52.206;5.114;2023-02-28T04:34:03;8.93;;;5.45;;
64885;SDS011;51514;52.206;5.114;2023-02-28T04:36:28;10.52;;;5.88;;
64885;SDS011;51514;52.206;5.114;2023-02-28T04:38:54;11.20;;;6.38;;
64885;SDS011;51514;52.206;5.114;2023-02-28T04:41:19;8.35;;;5.45;;
64885;SDS011;51514;52.206;5.114;2023-02-28T04:43:45;8.88;;;5.72;;
64885;SDS011;51514;52.206;5.114;2023-02-28T04:46:10;12.25;;;6.55;;
64885;SDS011;51514;52.206;5.114;2023-02-28T04:48:37;10.90;;;6.63;;
64885;SDS011;51514;52.206;5.114;2023-02-28T04:51:05;8.80;;;5.97;;
64885;SDS011;51514;52.206;5.114;2023-02-28T04:53:33;12.57;;;6.78;;
64885;SDS011;51514;52.206;5.114;2023-02-28T04:55:58;9.80;;;5.97;;
64885;SDS011;51514;52.206;5.114;2023-02-28T04:58:24;11.05;;;6.70;;
64885;SDS011;51514;52.206;5.114;2023-02-28T05:00:50;14.93;;;7.25;;
64885;SDS011;51514;52.206;5.114;2023-02-28T05:03:16;9.50;;;6.38;;
64885;SDS011;51514;52.206;5.114;2023-02-28T05:05:41;13.88;;;8.07;;
64885;SDS011;51514;52.206;5.114;2023-02-28T05:08:07;13.32;;;7.05;;
64885;SDS011;51514;52.206;5.114;2023-02-28T05:10:32;11.82;;;7.80;;
64885;SDS011;51514;52.206;5.114;2023-02-28T05:12:57;17.83;;;9.02;;
64885;SDS011;51514;52.206;5.114;2023-02-28T05:15:23;9.55;;;5.95;;
64885;SDS011;51514;52.206;5.114;2023-02-28T05:17:49;14.35;;;6.07;;
64885;SDS011;51514;52.206;5.114;2023-02-28T05:20:14;11.18;;;6.07;;
64885;SDS011;51514;52.206;5.114;2023-02-28T05:22:40;9.40;;;5.80;;
64885;SDS011;51514;52.206;5.114;2023-02-28T05:25:06;9.13;;;6.07;;
64885;SDS011;51514;52.206;5.114;2023-02-28T05:27:34;9.85;;;5.82;;
64885;SDS011;51514;52.206;5.114;2023-02-28T05:29:59;9.55;;;5.15;;
64885;SDS011;51514;52.206;5.114;2023-02-28T05:32:28;8.45;;;5.20;;
64885;SDS011;51514;52.206;5.114;2023-02-28T05:34:53;8.32;;;5.30;;
64885;SDS011;51514;52.206;5.114;2023-02-28T05:37:18;7.85;;;5.30;;
64885;SDS011;51514;52.206;5.114;2023-02-28T05:39:44;11.43;;;5.35;;
64885;SDS011;51514;52.206;5.114;2023-02-28T05:42:09;13.15;;;6.45;;
64885;SDS011;51514;52.206;5.114;2023-02-28T05:44:35;10.75;;;4.90;;
64885;SDS011;51514;52.206;5.114;2023-02-28T05:47:00;6.53;;;4.63;;
64885;SDS011;51514;52.206;5.114;2023-02-28T05:49:26;12.55;;;4.82;;
64885;SDS011;51514;52.206;5.114;2023-02-28T05:51:51;7.95;;;4.55;;
64885;SDS011;51514;52.206;5.114;2023-02-28T05:54:16;6.63;;;4.97;;
64885;SDS011;51514;52.206;5.114;2023-02-28T05:56:42;9.32;;;5.25;;
64885;SDS011;51514;52.206;5.114;2023-02-28T05:59:10;9.57;;;4.82;;
64885;SDS011;51514;52.206;5.114;2023-02-28T06:01:37;5.90;;;4.20;;
64885;SDS011;51514;52.206;5.114;2023-02-28T06:04:12;8.57;;;4.70;;
64885;SDS011;51514;52.206;5.114;2023-02-28T06:09:07;8.27;;;4.30;;
64885;SDS011;51514;52.206;5.114;2023-02-28T06:11:33;7.10;;;4.00;;
64885;SDS011;51514;52.206;5.114;2023-02-28T06:13:58;5.75;;;4.15;;
64885;SDS011;51514;52.206;5.114;2023-02-28T06:16:26;8.55;;;4.32;;
64885;SDS011;51514;52.206;5.114;2023-02-28T06:18:52;7.00;;;4.38;;
64885;SDS011;51514;52.206;5.114;2023-02-28T06:21:20;8.82;;;4.78;;
64885;SDS011;51514;52.206;5.114;2023-02-28T06:23:46;7.00;;;4.75;;
64885;SDS011;51514;52.206;5.114;2023-02-28T06:26:11;6.82;;;4.88;;
64885;SDS011;51514;52.206;5.114;2023-02-28T06:28:36;8.77;;;4.93;;
64885;SDS011;51514;52.206;5.114;2023-02-28T06:31:08;9.60;;;5.60;;
64885;SDS011;51514;52.206;5.114;2023-02-28T06:33:40;7.13;;;5.47;;
64885;SDS011;51514;52.206;5.114;2023-02-28T06:36:06;8.68;;;6.00;;
64885;SDS011;51514;52.206;5.114;2023-02-28T06:38:32;9.13;;;5.15;;
64885;SDS011;51514;52.206;5.114;2023-02-28T06:40:58;9.43;;;5.30;;
64885;SDS011;51514;52.206;5.114;2023-02-28T06:43:25;8.35;;;5.28;;
64885;SDS011;51514;52.206;5.114;2023-02-28T06:45:54;9.95;;;5.47;;
64885;SDS011;51514;52.206;5.114;2023-02-28T06:48:20;8.32;;;5.30;;
64885;SDS011;51514;52.206;5.114;2023-02-28T06:50:46;6.80;;;4.85;;
64885;SDS011;51514;52.206;5.114;2023-02-28T06:53:11;9.35;;;4.88;;
64885;SDS011;51514;52.206;5.114;2023-02-28T06:55:37;8.10;;;4.53;;
64885;SDS011;51514;52.206;5.114;2023-02-28T06:58:04;7.63;;;4.68;;
64885;SDS011;51514;52.206;5.114;2023-02-28T07:00:39;7.30;;;4.90;;
64885;SDS011;51514;52.206;5.114;2023-02-28T07:03:08;9.20;;;5.13;;
64885;SDS011;51514;52.206;5.114;2023-02-28T07:05:34;7.90;;;5.40;;
64885;SDS011;51514;52.206;5.114;2023-02-28T07:08:04;7.88;;;5.15;;
64885;SDS011;51514;52.206;5.114;2023-02-28T07:10:31;10.43;;;5.68;;
64885;SDS011;51514;52.206;5.114;2023-02-28T07:12:57;10.18;;;5.93;;
64885;SDS011;51514;52.206;5.114;2023-02-28T07:15:23;7.93;;;4.78;;
64885;SDS011;51514;52.206;5.114;2023-02-28T07:17:48;6.97;;;5.50;;
64885;SDS011;51514;52.206;5.114;2023-02-28T07:20:13;7.40;;;5.10;;
64885;SDS011;51514;52.206;5.114;2023-02-28T07:22:39;7.35;;;5.18;;
64885;SDS011;51514;52.206;5.114;2023-02-28T07:25:04;8.57;;;5.50;;
64885;SDS011;51514;52.206;5.114;2023-02-28T07:27:31;10.25;;;5.68;;
64885;SDS011;51514;52.206;5.114;2023-02-28T07:29:56;12.30;;;5.85;;
64885;SDS011;51514;52.206;5.114;2023-02-28T07:32:22;8.43;;;4.90;;
64885;SDS011;51514;52.206;5.114;2023-02-28T07:34:47;9.30;;;5.65;;
64885;SDS011;51514;52.206;5.114;2023-02-28T07:37:13;9.40;;;4.90;;
64885;SDS011;51514;52.206;5.114;2023-02-28T07:39:39;9.70;;;5.28;;
64885;SDS011;51514;52.206;5.114;2023-02-28T07:42:07;7.85;;;5.30;;
64885;SDS011;51514;52.206;5.114;2023-02-28T07:44:35;10.10;;;6.03;;
64885;SDS011;51514;52.206;5.114;2023-02-28T07:47:05;10.57;;;5.97;;
64885;SDS011;51514;52.206;5.114;2023-02-28T07:49:34;8.35;;;6.63;;
64885;SDS011;51514;52.206;5.114;2023-02-28T07:52:03;9.32;;;6.50;;
64885;SDS011;51514;52.206;5.114;2023-02-28T07:54:30;8.45;;;6.25;;
64885;SDS011;51514;52.206;5.114;2023-02-28T07:56:55;7.55;;;5.75;;
64885;SDS011;51514;52.206;5.114;2023-02-28T07:59:20;6.55;;;5.32;;
64885;SDS011;51514;52.206;5.114;2023-02-28T08:01:46;11.73;;;5.90;;
64885;SDS011;51514;52.206;5.114;2023-02-28T08:04:11;7.00;;;5.50;;
64885;SDS011;51514;52.206;5.114;2023-02-28T08:06:36;12.95;;;6.22;;
64885;SDS011;51514;52.206;5.114;2023-02-28T08:09:02;10.00;;;6.15;;
64885;SDS011;51514;52.206;5.114;2023-02-28T08:11:27;9.07;;;6.15;;
64885;SDS011;51514;52.206;5.114;2023-02-28T08:13:54;8.75;;;5.90;;
64885;SDS011;51514;52.206;5.114;2023-02-28T08:16:19;9.13;;;6.47;;
64885;SDS011;51514;52.206;5.114;2023-02-28T08:18:47;7.90;;;5.43;;
64885;SDS011;51514;52.206;5.114;2023-02-28T08:21:14;8.70;;;5.82;;
64885;SDS011;51514;52.206;5.114;2023-02-28T08:23:39;7.88;;;5.95;;
64885;SDS011;51514;52.206;5.114;2023-02-28T08:26:05;8.05;;;5.70;;
64885;SDS011;51514;52.206;5.114;2023-02-28T08:28:30;8.90;;;6.15;;
64885;SDS011;51514;52.206;5.114;2023-02-28T08:30:55;9.30;;;6.65;;
64885;SDS011;51514;52.206;5.114;2023-02-28T08:33:21;7.88;;;5.95;;
64885;SDS011;51514;52.206;5.114;2023-02-28T08:35:47;6.80;;;6.03;;
64885;SDS011;51514;52.206;5.114;2023-02-28T08:38:13;9.48;;;6.28;;
64885;SDS011;51514;52.206;5.114;2023-02-28T08:40:38;8.73;;;6.80;;
64885;SDS011;51514;52.206;5.114;2023-02-28T08:43:03;9.13;;;5.97;;
64885;SDS011;51514;52.206;5.114;2023-02-28T08:45:29;8.93;;;6.57;;
64885;SDS011;51514;52.206;5.114;2023-02-28T08:47:54;9.45;;;6.35;;
64885;SDS011;51514;52.206;5.114;2023-02-28T08:50:20;7.95;;;6.25;;
64885;SDS011;51514;52.206;5.114;2023-02-28T08:52:46;8.70;;;6.13;;
64885;SDS011;51514;52.206;5.114;2023-02-28T08:55:12;10.10;;;7.18;;
64885;SDS011;51514;52.206;5.114;2023-02-28T08:57:37;8.65;;;7.00;;
64885;SDS011;51514;52.206;5.114;2023-02-28T09:00:03;9.88;;;7.10;;
64885;SDS011;51514;52.206;5.114;2023-02-28T09:02:29;13.52;;;6.82;;
64885;SDS011;51514;52.206;5.114;2023-02-28T09:04:58;13.60;;;7.93;;
64885;SDS011;51514;52.206;5.114;2023-02-28T09:07:24;11.20;;;7.35;;
64885;SDS011;51514;52.206;5.114;2023-02-28T09:09:49;11.05;;;7.32;;
64885;SDS011;51514;52.206;5.114;2023-02-28T09:12:22;11.57;;;7.88;;
64885;SDS011;51514;52.206;5.114;2023-02-28T09:14:52;8.45;;;6.03;;
64885;SDS011;51514;52.206;5.114;2023-02-28T09:17:17;12.45;;;6.25;;
64885;SDS011;51514;52.206;5.114;2023-02-28T09:19:43;7.85;;;6.30;;
64885;SDS011;51514;52.206;5.114;2023-02-28T09:22:09;7.25;;;5.47;;
64885;SDS011;51514;52.206;5.114;2023-02-28T09:24:36;6.95;;;5.53;;
64885;SDS011;51514;52.206;5.114;2023-02-28T09:27:02;9.00;;;5.10;;
64885;SDS011;51514;52.206;5.114;2023-02-28T09:29:28;7.93;;;5.25;;
64885;SDS011;51514;52.206;5.114;2023-02-28T09:31:54;8.50;;;4.95;;
64885;SDS011;51514;52.206;5.114;2023-02-28T09:34:21;8.50;;;4.65;;
64885;SDS011;51514;52.206;5.114;2023-02-28T09:36:46;9.20;;;5.18;;
64885;SDS011;51514;52.206;5.114;2023-02-28T09:39:11;12.57;;;5.03;;
64885;SDS011;51514;52.206;5.114;2023-02-28T09:41:45;8.27;;;4.85;;
64885;SDS011;51514;52.206;5.114;2023-02-28T09:49:58;6.00;;;4.22;;
64885;SDS011;51514;52.206;5.114;2023-02-28T09:52:34;7.50;;;4.43;;
64885;SDS011;51514;52.206;5.114;2023-02-28T09:59:02;4.82;;;3.80;;
64885;SDS011;51514;52.206;5.114;2023-02-28T10:01:42;7.30;;;3.97;;
64885;SDS011;51514;52.206;5.114;2023-02-28T10:04:28;6.32;;;3.83;;
64885;SDS011;51514;52.206;5.114;2023-02-28T10:07:22;8.27;;;4.38;;
64885;SDS011;51514;52.206;5.114;2023-02-28T10:10:02;6.65;;;4.40;;
64885;SDS011;51514;52.206;5.114;2023-02-28T10:12:29;6.00;;;4.73;;
64885;SDS011;51514;52.206;5.114;2023-02-28T10:14:58;6.95;;;4.32;;
64885;SDS011;51514;52.206;5.114;2023-02-28T10:17:30;6.72;;;4.25;;
64885;SDS011;51514;52.206;5.114;2023-02-28T10:20:12;8.13;;;4.20;;
64885;SDS011;51514;52.206;5.114;2023-02-28T10:25:32;9.30;;;4.38;;
64885;SDS011;51514;52.206;5.114;2023-02-28T10:28:07;5.80;;;3.88;;
64885;SDS011;51514;52.206;5.114;2023-02-28T10:30:40;6.90;;;4.35;;
64885;SDS011;51514;52.206;5.114;2023-02-28T10:33:15;6.10;;;4.03;;
64885;SDS011;51514;52.206;5.114;2023-02-28T10:35:54;6.72;;;4.53;;
64885;SDS011;51514;52.206;5.114;2023-02-28T10:38:32;5.82;;;3.40;;
64885;SDS011;51514;52.206;5.114;2023-02-28T10:41:13;5.78;;;4.10;;
64885;SDS011;51514;52.206;5.114;2023-02-28T10:43:41;7.88;;;3.92;;
64885;SDS011;51514;52.206;5.114;2023-02-28T10:51:02;6.60;;;4.30;;
64885;SDS011;51514;52.206;5.114;2023-02-28T10:53:33;6.97;;;4.60;;
64885;SDS011;51514;52.206;5.114;2023-02-28T10:56:08;6.70;;;4.05;;
64885;SDS011;51514;52.206;5.114;2023-02-28T11:04:02;5.50;;;4.18;;
64885;SDS011;51514;52.206;5.114;2023-02-28T11:06:31;5.75;;;3.50;;
64885;SDS011;51514;52.206;5.114;2023-02-28T11:08:59;6.55;;;3.20;;
64885;SDS011;51514;52.206;5.114;2023-02-28T11:11:28;5.70;;;3.72;;
64885;SDS011;51514;52.206;5.114;2023-02-28T11:13:57;5.13;;;3.20;;
64885;SDS011;51514;52.206;5.114;2023-02-28T11:16:33;4.30;;;2.67;;
64885;SDS011;51514;52.206;5.114;2023-02-28T11:19:02;6.00;;;3.17;;
64885;SDS011;51514;52.206;5.114;2023-02-28T11:21:33;5.40;;;3.38;;
64885;SDS011;51514;52.206;5.114;2023-02-28T11:26:46;6.25;;;2.88;;
64885;SDS011;51514;52.206;5.114;2023-02-28T11:31:47;5.60;;;3.20;;
64885;SDS011;51514;52.206;5.114;2023-02-28T11:34:27;4.22;;;2.78;;
64885;SDS011;51514;52.206;5.114;2023-02-28T11:36:54;5.10;;;3.40;;
64885;SDS011;51514;52.206;5.114;2023-02-28T11:39:21;4.70;;;3.03;;
64885;SDS011;51514;52.206;5.114;2023-02-28T11:41:58;4.55;;;2.85;;
64885;SDS011;51514;52.206;5.114;2023-02-28T11:52:21;5.28;;;3.10;;
64885;SDS011;51514;52.206;5.114;2023-02-28T12:10:26;4.75;;;3.20;;
64885;SDS011;51514;52.206;5.114;2023-02-28T12:12:59;4.47;;;3.25;;
64885;SDS011;51514;52.206;5.114;2023-02-28T12:27:07;5.82;;;3.17;;
64885;SDS011;51514;52.206;5.114;2023-02-28T12:29:46;4.07;;;2.92;;
64885;SDS011;51514;52.206;5.114;2023-02-28T12:34:50;3.38;;;2.35;;
64885;SDS011;51514;52.206;5.114;2023-02-28T12:37:31;5.63;;;3.00;;
64885;SDS011;51514;52.206;5.114;2023-02-28T12:40:09;3.40;;;2.78;;
64885;SDS011;51514;52.206;5.114;2023-02-28T12:42:39;7.78;;;3.00;;
64885;SDS011;51514;52.206;5.114;2023-02-28T12:47:45;5.13;;;3.10;;
64885;SDS011;51514;52.206;5.114;2023-02-28T12:50:14;4.10;;;2.60;;
64885;SDS011;51514;52.206;5.114;2023-02-28T12:52:56;4.55;;;3.15;;
64885;SDS011;51514;52.206;5.114;2023-02-28T12:58:12;4.40;;;2.60;;
64885;SDS011;51514;52.206;5.114;2023-02-28T13:03:46;5.28;;;2.80;;
64885;SDS011;51514;52.206;5.114;2023-02-28T13:14:13;5.15;;;2.70;;
64885;SDS011;51514;52.206;5.114;2023-02-28T13:19:15;6.22;;;2.83;;
64885;SDS011;51514;52.206;5.114;2023-02-28T13:21:44;4.13;;;2.83;;
64885;SDS011;51514;52.206;5.114;2023-02-28T13:24:10;5.07;;;3.35;;
64885;SDS011;51514;52.206;5.114;2023-02-28T13:32:18;4.68;;;2.75;;
64885;SDS011;51514;52.206;5.114;2023-02-28T13:34:39;3.40;;;2.47;;
64885;SDS011;51514;52.206;5.114;2023-02-28T13:42:23;3.70;;;2.90;;
64885;SDS011;51514;52.206;5.114;2023-02-28T14:11:38;5.03;;;3.22;;
64885;SDS011;51514;52.206;5.114;2023-02-28T14:14:06;3.88;;;2.67;;
64885;SDS011;51514;52.206;5.114;2023-02-28T14:16:44;5.03;;;3.20;;
64885;SDS011;51514;52.206;5.114;2023-02-28T14:19:19;4.65;;;2.88;;
64885;SDS011;51514;52.206;5.114;2023-02-28T14:22:05;7.03;;;2.83;;
64885;SDS011;51514;52.206;5.114;2023-02-28T14:28:11;7.60;;;3.03;;
64885;SDS011;51514;52.206;5.114;2023-02-28T14:31:00;5.13;;;3.20;;
64885;SDS011;51514;52.206;5.114;2023-02-28T14:33:40;2.95;;;2.30;;
64885;SDS011;51514;52.206;5.114;2023-02-28T14:36:21;5.32;;;3.30;;
64885;SDS011;51514;52.206;5.114;2023-02-28T14:38:51;7.05;;;3.13;;
64885;SDS011;51514;52.206;5.114;2023-02-28T14:43:48;4.03;;;2.70;;
64885;SDS011;51514;52.206;5.114;2023-02-28T14:46:15;3.95;;;3.00;;
64885;SDS011;51514;52.206;5.114;2023-02-28T14:48:44;3.60;;;2.80;;
64885;SDS011;51514;52.206;5.114;2023-02-28T14:51:11;4.00;;;3.17;;
64885;SDS011;51514;52.206;5.114;2023-02-28T14:53:43;3.55;;;2.63;;
64885;SDS011;51514;52.206;5.114;2023-02-28T14:56:21;4.18;;;3.30;;
64885;SDS011;51514;52.206;5.114;2023-02-28T14:58:57;5.15;;;3.03;;
64885;SDS011;51514;52.206;5.114;2023-02-28T15:01:24;4.97;;;2.90;;
64885;SDS011;51514;52.206;5.114;2023-02-28T15:03:57;6.72;;;3.25;;
64885;SDS011;51514;52.206;5.114;2023-02-28T15:06:32;4.00;;;3.17;;
64885;SDS011;51514;52.206;5.114;2023-02-28T15:09:08;4.53;;;2.88;;
64885;SDS011;51514;52.206;5.114;2023-02-28T15:11:44;4.30;;;3.10;;
64885;SDS011;51514;52.206;5.114;2023-02-28T15:14:15;4.10;;;3.15;;
64885;SDS011;51514;52.206;5.114;2023-02-28T15:16:44;3.65;;;2.90;;
64885;SDS011;51514;52.206;5.114;2023-02-28T15:21:53;6.53;;;3.28;;
64885;SDS011;51514;52.206;5.114;2023-02-28T15:24:37;4.85;;;3.47;;
64885;SDS011;51514;52.206;5.114;2023-02-28T15:27:07;3.83;;;3.20;;
64885;SDS011;51514;52.206;5.114;2023-02-28T15:29:45;4.13;;;3.35;;
64885;SDS011;51514;52.206;5.114;2023-02-28T15:32:35;3.60;;;2.97;;
64885;SDS011;51514;52.206;5.114;2023-02-28T15:37:53;6.53;;;3.55;;
64885;SDS011;51514;52.206;5.114;2023-02-28T15:40:41;5.40;;;3.35;;
64885;SDS011;51514;52.206;5.114;2023-02-28T15:43:16;5.38;;;3.30;;
64885;SDS011;51514;52.206;5.114;2023-02-28T15:51:14;5.95;;;3.42;;
64885;SDS011;51514;52.206;5.114;2023-02-28T15:53:51;5.13;;;3.92;;
64885;SDS011;51514;52.206;5.114;2023-02-28T15:56:26;6.63;;;3.35;;
64885;SDS011;51514;52.206;5.114;2023-02-28T15:59:13;4.65;;;3.17;;
64885;SDS011;51514;52.206;5.114;2023-02-28T16:01:43;3.42;;;2.88;;
64885;SDS011;51514;52.206;5.114;2023-02-28T16:04:15;6.85;;;3.85;;
64885;SDS011;51514;52.206;5.114;2023-02-28T16:07:04;5.10;;;3.25;;
64885;SDS011;51514;52.206;5.114;2023-02-28T16:09:28;6.45;;;3.85;;
64885;SDS011;51514;52.206;5.114;2023-02-28T16:11:56;4.75;;;3.30;;
64885;SDS011;51514;52.206;5.114;2023-02-28T16:14:24;5.32;;;3.72;;
64885;SDS011;51514;52.206;5.114;2023-02-28T16:16:53;6.43;;;3.65;;
64885;SDS011;51514;52.206;5.114;2023-02-28T16:19:21;5.67;;;4.00;;
64885;SDS011;51514;52.206;5.114;2023-02-28T16:21:47;4.53;;;3.28;;
64885;SDS011;51514;52.206;5.114;2023-02-28T16:24:13;7.30;;;3.80;;
64885;SDS011;51514;52.206;5.114;2023-02-28T16:26:39;4.22;;;3.10;;
64885;SDS011;51514;52.206;5.114;2023-02-28T16:29:07;5.75;;;3.50;;
64885;SDS011;51514;52.206;5.114;2023-02-28T16:31:35;4.88;;;3.47;;
64885;SDS011;51514;52.206;5.114;2023-02-28T16:34:02;6.95;;;3.80;;
64885;SDS011;51514;52.206;5.114;2023-02-28T16:36:29;4.85;;;3.40;;
64885;SDS011;51514;52.206;5.114;2023-02-28T16:38:55;5.20;;;3.42;;
64885;SDS011;51514;52.206;5.114;2023-02-28T16:41:22;5.47;;;4.03;;
64885;SDS011;51514;52.206;5.114;2023-02-28T16:43:51;5.63;;;3.60;;
64885;SDS011;51514;52.206;5.114;2023-02-28T16:46:18;4.82;;;3.20;;
64885;SDS011;51514;52.206;5.114;2023-02-28T16:48:45;4.60;;;3.40;;
64885;SDS011;51514;52.206;5.114;2023-02-28T16:51:16;4.07;;;3.15;;
64885;SDS011;51514;52.206;5.114;2023-02-28T16:53:42;4.70;;;3.58;;
64885;SDS011;51514;52.206;5.114;2023-02-28T16:56:14;3.90;;;3.40;;
64885;SDS011;51514;52.206;5.114;2023-02-28T16:58:42;5.30;;;4.13;;
64885;SDS011;51514;52.206;5.114;2023-02-28T17:01:08;5.10;;;3.63;;
64885;SDS011;51514;52.206;5.114;2023-02-28T17:03:33;4.72;;;4.00;;
64885;SDS011;51514;52.206;5.114;2023-02-28T17:05:59;4.32;;;3.40;;
64885;SDS011;51514;52.206;5.114;2023-02-28T17:08:25;6.35;;;3.60;;
64885;SDS011;51514;52.206;5.114;2023-02-28T17:10:51;4.72;;;3.60;;
64885;SDS011;51514;52.206;5.114;2023-02-28T17:13:16;4.80;;;3.30;;
64885;SDS011;51514;52.206;5.114;2023-02-28T17:15:42;6.80;;;3.80;;
64885;SDS011;51514;52.206;5.114;2023-02-28T17:18:14;6.10;;;3.97;;
64885;SDS011;51514;52.206;5.114;2023-02-28T17:20:43;4.78;;;3.70;;
64885;SDS011;51514;52.206;5.114;2023-02-28T17:23:10;6.18;;;3.50;;
64885;SDS011;51514;52.206;5.114;2023-02-28T17:25:35;5.35;;;3.53;;
64885;SDS011;51514;52.206;5.114;2023-02-28T17:28:01;5.00;;;4.00;;
64885;SDS011;51514;52.206;5.114;2023-02-28T17:30:27;5.28;;;3.88;;
64885;SDS011;51514;52.206;5.114;2023-02-28T17:32:55;5.35;;;3.50;;
64885;SDS011;51514;52.206;5.114;2023-02-28T17:35:22;4.35;;;3.47;;
64885;SDS011;51514;52.206;5.114;2023-02-28T17:37:48;5.13;;;3.78;;
64885;SDS011;51514;52.206;5.114;2023-02-28T17:40:15;5.65;;;3.85;;
64885;SDS011;51514;52.206;5.114;2023-02-28T17:42:42;8.60;;;3.90;;
64885;SDS011;51514;52.206;5.114;2023-02-28T17:45:08;5.53;;;3.95;;
64885;SDS011;51514;52.206;5.114;2023-02-28T17:47:34;6.78;;;4.30;;
64885;SDS011;51514;52.206;5.114;2023-02-28T17:49:59;7.40;;;4.25;;
64885;SDS011;51514;52.206;5.114;2023-02-28T17:52:24;6.43;;;4.78;;
64885;SDS011;51514;52.206;5.114;2023-02-28T17:54:50;6.00;;;4.70;;
64885;SDS011;51514;52.206;5.114;2023-02-28T17:57:15;7.72;;;4.90;;